Terminal Aerodrome Forecast
Issued by NWS Lake Charles, LA

Home | Current Version | Previous Version | Text Only | Print | Product List | Glossary On
Versions: 1 2 3 4 5 6 7 8 9 10 11 12 13 14 15
000
FTUS44 KLCH 221100
TAFLFT
TAF
KLFT 221131Z 2212/2312 VRB03KT P6SM FEW200
     FM221500 20005KT P6SM VCSH FEW030 FEW050 SCT200
      TEMPO 2218/2222 P6SM TSRA SCT035CB BKN050CB
     FM222300 22002KT P6SM SCT250=

USA.gov is the U.S. government's official web portal to all federal, state and local government web resources and services.